createdAt,value
2023-09-06T00:03:28.368Z,100855.25
2023-09-06T00:07:30.238Z,100857.88
2023-09-06T00:11:31.994Z,100862.22
2023-09-06T00:15:33.701Z,100868.25
2023-09-06T00:19:35.398Z,100865.66
2023-09-06T00:23:37.102Z,100869.16
2023-09-06T00:27:38.789Z,100872.63
2023-09-06T00:31:40.511Z,100873.47
2023-09-06T00:35:44.228Z,100874.34
2023-09-06T00:39:46.546Z,100872.63
2023-09-06T00:43:48.182Z,100876.06
2023-09-06T00:47:53.933Z,100864.78
2023-09-06T00:51:55.589Z,100866.50
2023-09-06T00:55:59.868Z,100861.25
2023-09-06T01:00:05.165Z,100856.06
2023-09-06T01:04:06.774Z,100852.56
2023-09-06T01:08:13.305Z,100853.44
2023-09-06T01:12:14.943Z,100850.81
2023-09-06T01:16:27.896Z,100847.31
2023-09-06T01:20:43.625Z,100850.78
2023-09-06T01:24:46.910Z,100841.25
2023-09-06T01:28:50.686Z,100840.34
2023-09-06T01:32:52.291Z,100846.38
2023-09-06T01:36:54.145Z,100842.84
2023-09-06T01:40:55.741Z,100848.00
2023-09-06T01:44:57.323Z,100837.56
2023-09-06T01:49:00.948Z,100843.63
2023-09-06T01:53:02.596Z,100842.78
2023-09-06T01:57:04.493Z,100846.22
2023-09-06T02:01:06.226Z,100844.44
2023-09-06T02:05:08.399Z,100853.91
2023-09-06T02:09:09.983Z,100846.00
2023-09-06T02:13:11.698Z,100845.03
2023-09-06T02:17:13.508Z,100855.38
2023-09-06T02:21:15.256Z,100855.38
2023-09-06T02:25:17.648Z,100843.25
2023-09-06T02:29:19.339Z,100840.66
2023-09-06T02:33:21.663Z,100844.91
2023-09-06T02:37:23.961Z,100854.44
2023-09-06T02:41:25.590Z,100851.78
2023-09-06T02:45:37.637Z,100859.56
2023-09-06T02:49:42.310Z,100861.22
2023-09-06T02:53:46.759Z,100855.91
2023-09-06T02:57:50.431Z,100862.69
2023-09-06T03:01:54.343Z,100856.63
2023-09-06T03:06:00.462Z,100857.44
2023-09-06T03:10:05.421Z,100860.03
2023-09-06T03:14:07.829Z,100867.75
2023-09-06T03:18:11.028Z,100873.69
2023-09-06T03:22:16.510Z,100869.28
2023-09-06T03:26:18.436Z,100878.66
2023-09-06T03:30:20.774Z,100870.88
2023-09-06T03:34:25.895Z,100872.59
2023-09-06T03:38:29.470Z,100879.44
2023-09-06T03:42:35.666Z,100881.16
2023-09-06T03:46:37.455Z,100876.84
2023-09-06T03:50:39.150Z,100866.38
2023-09-06T03:54:41.877Z,100866.38
2023-09-06T03:58:44.205Z,100874.13
2023-09-06T04:02:49.102Z,100876.72
2023-09-06T04:06:51.642Z,100887.94
2023-09-06T04:10:53.390Z,100881.84
2023-09-06T04:14:58.585Z,100886.13
2023-09-06T04:19:02.245Z,100888.69
2023-09-06T04:23:06.673Z,100888.59
2023-09-06T04:27:13.154Z,100879.03
2023-09-06T04:31:18.936Z,100880.69
2023-09-06T04:35:27.034Z,100878.94
2023-09-06T04:39:31.580Z,100881.47
2023-09-06T04:43:34.144Z,100879.69
2023-09-06T04:47:39.524Z,100885.69
2023-09-06T04:51:41.845Z,100887.38
2023-09-06T04:55:43.960Z,100885.63
2023-09-06T04:59:45.889Z,100881.25
2023-09-06T05:03:47.719Z,100902.84
2023-09-06T05:07:49.698Z,100904.63
2023-09-06T05:11:53.539Z,100904.59
2023-09-06T05:16:01.750Z,100907.91
2023-09-06T05:20:23.759Z,100904.47
2023-09-06T05:24:25.862Z,100908.75
2023-09-06T05:28:28.243Z,100926.06
2023-09-06T05:32:35.716Z,100918.25
2023-09-06T05:36:37.557Z,100929.47
2023-09-06T05:40:41.897Z,100924.28
2023-09-06T05:44:48.121Z,100933.91
2023-09-06T05:48:49.890Z,100937.31
2023-09-06T05:52:52.973Z,100935.63
2023-09-06T05:56:54.982Z,100932.19
2023-09-06T06:00:57.657Z,100937.41
2023-09-06T06:04:59.454Z,100952.13
2023-09-06T06:09:01.550Z,100951.31
2023-09-06T06:13:05.773Z,100946.91
2023-09-06T06:17:10.154Z,100953.69
2023-09-06T06:21:12.474Z,100961.50
2023-09-06T06:25:14.161Z,100960.81
2023-09-06T06:29:16.022Z,100963.56
2023-09-06T06:33:17.730Z,100955.69
2023-09-06T06:37:19.444Z,100953.94
2023-09-06T06:41:24.460Z,100954.09
2023-09-06T06:45:26.116Z,100955.06
2023-09-06T06:49:28.462Z,100963.00
2023-09-06T06:53:30.097Z,100963.88
2023-09-06T06:57:31.844Z,100969.25
2023-09-06T07:01:33.537Z,100981.56
2023-09-06T07:05:35.161Z,100981.69
2023-09-06T07:09:37.185Z,100973.97
2023-09-06T07:13:39.515Z,100975.69
2023-09-06T07:17:42.339Z,100973.09
2023-09-06T07:21:45.436Z,100979.34
2023-09-06T07:25:48.109Z,100985.53
2023-09-06T07:29:49.820Z,100982.22
2023-09-06T07:33:51.890Z,100979.78
2023-09-06T07:37:54.656Z,100982.47
2023-09-06T07:41:57.382Z,100977.31
2023-09-06T07:46:00.154Z,100983.50
2023-09-06T07:50:02.067Z,100978.44
2023-09-06T07:54:03.719Z,100978.59
2023-09-06T07:58:05.464Z,100982.19
2023-09-06T08:02:07.512Z,100983.16
2023-09-06T08:06:09.316Z,100975.44
2023-09-06T08:10:10.929Z,100989.38
2023-09-06T08:14:12.517Z,100985.16
2023-09-06T08:18:14.188Z,100994.72
2023-09-06T08:22:15.897Z,100995.63
2023-09-06T08:26:17.503Z,100997.47
2023-09-06T08:30:20.714Z,100994.91
2023-09-06T08:34:22.608Z,100988.06
2023-09-06T08:38:24.341Z,100982.00
2023-09-06T08:42:28.730Z,100985.50
2023-09-06T08:46:39.168Z,100987.28
2023-09-06T08:50:41.026Z,100991.63
2023-09-06T08:54:50.181Z,100983.84
2023-09-06T08:58:52.133Z,100980.38
2023-09-06T09:02:54.132Z,100980.38
2023-09-06T09:06:55.990Z,100977.75
2023-09-06T09:11:17.176Z,100977.75
2023-09-06T09:15:24.019Z,100969.91
2023-09-06T09:19:26.990Z,100973.38
2023-09-06T09:23:30.407Z,100970.75
2023-09-06T09:27:33.589Z,100967.19
2023-09-06T09:31:35.263Z,100965.44
2023-09-06T09:35:37.140Z,100964.50
2023-09-06T09:39:39.190Z,100960.91
2023-09-06T09:43:40.886Z,100961.72
2023-09-06T09:47:53.618Z,100953.84
2023-09-06T09:51:55.985Z,100945.94
2023-09-06T09:56:01.594Z,100952.88
2023-09-06T10:00:04.878Z,100949.31
2023-09-06T10:04:16.200Z,100950.09
2023-09-06T10:08:20.678Z,100945.66
2023-09-06T10:12:23.689Z,100938.63
2023-09-06T10:16:25.679Z,100935.03
2023-09-06T10:20:31.808Z,100929.72
2023-09-06T10:24:35.729Z,100929.63
2023-09-06T10:28:37.439Z,100922.56
2023-09-06T10:32:43.037Z,100931.13
2023-09-06T10:36:55.518Z,100928.38
2023-09-06T10:40:57.110Z,100915.13
2023-09-06T10:45:02.168Z,100912.34
2023-09-06T10:49:13.463Z,100912.25
2023-09-06T10:53:18.795Z,100913.03
2023-09-06T10:57:20.369Z,100904.16
2023-09-06T11:01:22.349Z,100895.28
2023-09-06T11:05:40.864Z,100899.53
2023-09-06T11:09:46.844Z,100895.06
2023-09-06T11:13:48.475Z,100888.88
2023-09-06T11:17:50.394Z,100895.72
2023-09-06T11:22:05.175Z,100885.97
2023-09-06T11:26:07.126Z,100877.97
2023-09-06T11:30:16.831Z,100878.72
2023-09-06T11:34:20.857Z,100875.13
2023-09-06T11:38:30.175Z,100873.19
2023-09-06T11:42:34.141Z,100876.47
2023-09-06T11:46:39.655Z,100862.28
2023-09-06T11:50:43.974Z,100860.38
2023-09-06T11:54:51.050Z,100859.25
2023-09-06T11:58:55.115Z,100852.06
2023-09-06T12:03:08.530Z,100850.03
2023-09-06T12:07:10.165Z,100838.34
2023-09-06T12:11:16.067Z,100835.56
2023-09-06T12:15:20.977Z,100821.25
2023-09-06T12:19:22.659Z,100821.88
2023-09-06T12:23:27.547Z,100818.09
2023-09-06T12:27:30.213Z,100805.50
2023-09-06T12:31:32.122Z,100807.84
2023-09-06T12:35:39.718Z,100801.34
2023-09-06T12:39:43.460Z,100802.78
2023-09-06T12:43:45.321Z,100790.94
2023-09-06T12:47:47.137Z,100787.78
2023-09-06T12:51:49.342Z,100781.16
2023-09-06T12:55:51.221Z,100773.75
2023-09-06T12:59:52.829Z,100766.47
2023-09-06T13:03:54.706Z,100771.19
2023-09-06T13:07:56.369Z,100753.22
2023-09-06T13:11:58.192Z,100748.38
2023-09-06T13:15:59.912Z,100741.75
2023-09-06T13:20:01.693Z,100744.56
2023-09-06T13:24:05.137Z,100733.53
2023-09-06T13:28:06.890Z,100723.41
2023-09-06T13:32:08.678Z,100720.94
2023-09-06T13:36:10.510Z,100718.59
2023-09-06T13:40:12.757Z,100725.25
2023-09-06T13:44:15.190Z,100721.91
2023-09-06T13:48:16.919Z,100724.97
2023-09-06T13:52:19.132Z,100721.00
2023-09-06T13:56:20.776Z,100722.00
2023-09-06T14:00:23.236Z,100715.63
2023-09-06T14:04:25.270Z,100714.19
2023-09-06T14:08:27.144Z,100702.19
2023-09-06T14:12:29.642Z,100703.09
2023-09-06T14:16:34.018Z,100694.63
2023-09-06T14:20:37.505Z,100694.34
2023-09-06T14:24:39.402Z,100679.88
2023-09-06T14:28:41.477Z,100684.50
2023-09-06T14:32:43.245Z,100682.44
2023-09-06T14:36:44.963Z,100673.25
2023-09-06T14:40:46.889Z,100669.06
2023-09-06T14:44:48.830Z,100667.84
2023-09-06T14:48:50.726Z,100667.50
2023-09-06T14:52:53.134Z,100667.88
2023-09-06T14:56:55.056Z,100666.69
2023-09-06T15:00:56.909Z,100654.06
2023-09-06T15:04:58.768Z,100658.00
2023-09-06T15:09:00.537Z,100656.50
2023-09-06T15:13:04.793Z,100661.50
2023-09-06T15:17:08.335Z,100658.50
2023-09-06T15:21:10.115Z,100653.84
2023-09-06T15:25:12.541Z,100654.41
2023-09-06T15:29:14.182Z,100647.88
2023-09-06T15:33:16.805Z,100646.88
2023-09-06T15:37:18.625Z,100646.63
2023-09-06T15:41:20.473Z,100646.47
2023-09-06T15:45:22.234Z,100652.56
2023-09-06T15:49:23.979Z,100642.09
2023-09-06T15:53:25.647Z,100645.91
2023-09-06T15:57:27.278Z,100642.00
2023-09-06T16:01:31.031Z,100643.31
2023-09-06T16:05:34.094Z,100633.50
2023-09-06T16:09:38.462Z,100625.00
2023-09-06T16:13:40.178Z,100636.09
2023-09-06T16:17:41.972Z,100637.41
2023-09-06T16:21:43.923Z,100635.91
2023-09-06T16:25:45.501Z,100636.31
2023-09-06T16:29:47.446Z,100627.03
2023-09-06T16:33:49.227Z,100629.44
2023-09-06T16:37:51.922Z,100640.53
2023-09-06T16:41:54.718Z,100644.44
2023-09-06T16:45:57.241Z,100641.53
2023-09-06T16:49:58.976Z,100638.53
2023-09-06T16:54:00.854Z,100634.03
2023-09-06T16:58:07.946Z,100634.75
2023-09-06T17:02:11.135Z,100628.53
2023-09-06T17:06:12.814Z,100628.38
2023-09-06T17:10:14.470Z,100634.53
2023-09-06T17:14:16.170Z,100639.56
2023-09-06T17:18:17.833Z,100640.44
2023-09-06T17:22:19.430Z,100645.69
2023-09-06T17:26:24.926Z,100644.34
2023-09-06T17:30:26.645Z,100646.47
2023-09-06T17:34:28.344Z,100645.88
2023-09-06T17:38:30.260Z,100645.91
2023-09-06T17:42:32.519Z,100648.53
2023-09-06T17:46:35.214Z,100652.72
2023-09-06T17:50:52.007Z,100663.88
2023-09-06T17:54:53.961Z,100665.31
2023-09-06T17:58:56.306Z,100670.22
2023-09-06T18:03:01.328Z,100678.56
2023-09-06T18:07:03.119Z,100668.47
2023-09-06T18:11:09.362Z,100683.72
2023-09-06T18:15:15.209Z,100688.50
2023-09-06T18:19:17.817Z,100690.50
2023-09-06T18:23:20.176Z,100698.69
2023-09-06T18:27:21.933Z,100701.53
2023-09-06T18:31:23.901Z,100707.06
2023-09-06T18:35:28.150Z,100710.75
2023-09-06T18:39:30.088Z,100723.22
2023-09-06T18:43:31.872Z,100713.81
2023-09-06T18:47:33.679Z,100721.88
2023-09-06T18:51:36.355Z,100715.94
2023-09-06T18:55:44.071Z,100724.88
2023-09-06T18:59:45.883Z,100725.03
2023-09-06T19:03:47.561Z,100727.84
2023-09-06T19:07:49.248Z,100732.38
2023-09-06T19:11:51.129Z,100735.16
2023-09-06T19:15:52.864Z,100734.41
2023-09-06T19:19:54.684Z,100733.75
2023-09-06T19:23:56.281Z,100741.75
2023-09-06T19:27:57.875Z,100749.84
2023-09-06T19:31:59.498Z,100750.94
2023-09-06T19:36:01.138Z,100751.09
2023-09-06T19:40:05.078Z,100750.44
2023-09-06T19:44:07.483Z,100751.41
2023-09-06T19:48:09.167Z,100746.25
2023-09-06T19:52:11.188Z,100750.78
2023-09-06T19:56:17.898Z,100753.47
2023-09-06T20:00:20.673Z,100753.56
2023-09-06T20:04:25.830Z,100752.78
2023-09-06T20:08:27.776Z,100759.81
2023-09-06T20:12:29.504Z,100756.50
2023-09-06T20:16:31.163Z,100761.94
2023-09-06T20:20:37.631Z,100756.84
2023-09-06T20:24:39.362Z,100754.28
2023-09-06T20:28:41.096Z,100757.78
2023-09-06T20:32:42.917Z,100768.31
2023-09-06T20:36:44.528Z,100764.91
2023-09-06T20:40:46.797Z,100773.69
2023-09-06T20:44:48.351Z,100777.25
2023-09-06T20:48:51.596Z,100766.03
2023-09-06T20:52:53.262Z,100775.63
2023-09-06T20:56:54.891Z,100776.53
2023-09-06T21:00:56.797Z,100776.56
2023-09-06T21:04:58.712Z,100778.34
2023-09-06T21:09:00.952Z,100778.44
2023-09-06T21:13:05.699Z,100777.59
2023-09-06T21:17:07.436Z,100782.91
2023-09-06T21:21:09.359Z,100781.22
2023-09-06T21:25:11.014Z,100788.22
2023-09-06T21:29:27.273Z,100790.03
2023-09-06T21:33:30.325Z,100790.09
2023-09-06T21:37:32.189Z,100790.97
2023-09-06T21:41:34.511Z,100794.50
2023-09-06T21:45:37.229Z,100798.94
2023-09-06T21:49:38.827Z,100807.66
2023-09-06T21:53:40.790Z,100798.13
2023-09-06T21:57:49.397Z,100799.00
2023-09-06T22:02:01.509Z,100806.03
2023-09-06T22:06:21.634Z,100798.25
2023-09-06T22:10:41.922Z,100809.63
2023-09-06T22:15:05.965Z,100805.31
2023-09-06T22:19:07.689Z,100810.56
2023-09-06T22:23:09.700Z,100811.47
2023-09-06T22:27:11.904Z,100809.72
2023-09-06T22:31:14.334Z,100806.28
2023-09-06T22:35:16.142Z,100807.19
2023-09-06T22:39:17.943Z,100812.47
2023-09-06T22:43:19.496Z,100811.63
2023-09-06T22:47:21.187Z,100812.50
2023-09-06T22:51:23.302Z,100804.72
2023-09-06T22:55:24.992Z,100807.34
2023-09-06T22:59:26.795Z,100811.66
2023-09-06T23:03:31.298Z,100813.44
2023-09-06T23:07:33.609Z,100807.38
2023-09-06T23:11:35.532Z,100812.59
2023-09-06T23:15:40.004Z,100815.22
2023-09-06T23:19:52.618Z,100820.47
2023-09-06T23:23:58.232Z,100817.00
2023-09-06T23:28:05.692Z,100818.72
2023-09-06T23:32:07.613Z,100810.91
2023-09-06T23:36:15.745Z,100816.16
2023-09-06T23:40:24.913Z,100820.53
2023-09-06T23:44:26.616Z,100815.31
2023-09-06T23:48:31.190Z,100818.81
2023-09-06T23:52:32.938Z,100816.16
2023-09-06T23:56:35.300Z,100812.69
